sensor_id;sensor_type;location;lat;lon;timestamp;temperature;humidity
8662;DHT22;29684;47.722;9.388;2023-04-23T00:01:07;12.20;99.90
8662;DHT22;29684;47.722;9.388;2023-04-23T00:03:56;12.30;99.90
8662;DHT22;29684;47.722;9.388;2023-04-23T00:06:41;12.30;99.90
8662;DHT22;29684;47.722;9.388;2023-04-23T00:09:29;12.40;99.90
8662;DHT22;29684;47.722;9.388;2023-04-23T00:12:15;12.40;99.90
8662;DHT22;29684;47.722;9.388;2023-04-23T00:15:00;12.50;99.90
8662;DHT22;29684;47.722;9.388;2023-04-23T00:17:44;12.50;99.90
8662;DHT22;29684;47.722;9.388;2023-04-23T00:20:29;12.50;99.90
8662;DHT22;29684;47.722;9.388;2023-04-23T00:23:13;12.50;99.90
8662;DHT22;29684;47.722;9.388;2023-04-23T00:25:57;12.50;99.90
8662;DHT22;29684;47.722;9.388;2023-04-23T00:28:42;12.40;99.90
8662;DHT22;29684;47.722;9.388;2023-04-23T00:31:26;12.40;99.90
8662;DHT22;29684;47.722;9.388;2023-04-23T00:34:10;12.40;99.90
8662;DHT22;29684;47.722;9.388;2023-04-23T00:36:54;12.20;99.90
8662;DHT22;29684;47.722;9.388;2023-04-23T00:39:39;12.10;99.90
8662;DHT22;29684;47.722;9.388;2023-04-23T00:42:24;12.20;99.90
8662;DHT22;29684;47.722;9.388;2023-04-23T00:45:09;12.00;99.90
8662;DHT22;29684;47.722;9.388;2023-04-23T00:47:53;11.90;99.90
8662;DHT22;29684;47.722;9.388;2023-04-23T00:50:39;11.80;99.90
8662;DHT22;29684;47.722;9.388;2023-04-23T00:53:24;11.90;99.90
8662;DHT22;29684;47.722;9.388;2023-04-23T00:56:09;11.70;99.90
8662;DHT22;29684;47.722;9.388;2023-04-23T00:58:54;11.60;99.90
8662;DHT22;29684;47.722;9.388;2023-04-23T01:01:39;11.70;99.90
8662;DHT22;29684;47.722;9.388;2023-04-23T01:04:26;11.70;99.90
8662;DHT22;29684;47.722;9.388;2023-04-23T01:07:11;11.70;99.90
8662;DHT22;29684;47.722;9.388;2023-04-23T01:09:56;11.70;99.90
8662;DHT22;29684;47.722;9.388;2023-04-23T01:12:40;11.80;99.90
8662;DHT22;29684;47.722;9.388;2023-04-23T01:15:24;11.80;99.90
8662;DHT22;29684;47.722;9.388;2023-04-23T01:18:09;11.80;99.90
8662;DHT22;29684;47.722;9.388;2023-04-23T01:20:54;11.80;99.90
8662;DHT22;29684;47.722;9.388;2023-04-23T01:23:39;11.80;99.90
8662;DHT22;29684;47.722;9.388;2023-04-23T01:26:24;12.60;99.90
8662;DHT22;29684;47.722;9.388;2023-04-23T01:29:09;11.80;99.90
8662;DHT22;29684;47.722;9.388;2023-04-23T01:31:54;11.70;99.90
8662;DHT22;29684;47.722;9.388;2023-04-23T01:34:40;11.70;99.90
8662;DHT22;29684;47.722;9.388;2023-04-23T01:37:25;11.70;99.90
8662;DHT22;29684;47.722;9.388;2023-04-23T01:40:10;11.70;99.90
8662;DHT22;29684;47.722;9.388;2023-04-23T01:42:56;11.70;99.90
8662;DHT22;29684;47.722;9.388;2023-04-23T01:45:41;11.60;99.90
8662;DHT22;29684;47.722;9.388;2023-04-23T01:48:25;11.50;99.90
8662;DHT22;29684;47.722;9.388;2023-04-23T01:51:09;11.60;99.90
8662;DHT22;29684;47.722;9.388;2023-04-23T01:53:53;11.90;99.90
8662;DHT22;29684;47.722;9.388;2023-04-23T01:56:37;11.50;99.90
8662;DHT22;29684;47.722;9.388;2023-04-23T01:59:22;11.50;99.90
8662;DHT22;29684;47.722;9.388;2023-04-23T02:02:06;11.40;99.90
8662;DHT22;29684;47.722;9.388;2023-04-23T02:04:54;11.50;99.90
8662;DHT22;29684;47.722;9.388;2023-04-23T02:07:40;11.40;99.90
8662;DHT22;29684;47.722;9.388;2023-04-23T02:10:25;11.40;99.90
8662;DHT22;29684;47.722;9.388;2023-04-23T02:13:09;11.40;99.90
8662;DHT22;29684;47.722;9.388;2023-04-23T02:15:53;11.40;99.90
8662;DHT22;29684;47.722;9.388;2023-04-23T02:18:38;11.30;99.90
8662;DHT22;29684;47.722;9.388;2023-04-23T02:21:23;11.20;99.90
8662;DHT22;29684;47.722;9.388;2023-04-23T02:24:07;11.20;99.90
8662;DHT22;29684;47.722;9.388;2023-04-23T02:26:52;11.20;99.90
8662;DHT22;29684;47.722;9.388;2023-04-23T02:29:36;11.20;99.90
8662;DHT22;29684;47.722;9.388;2023-04-23T02:32:20;11.10;99.90
8662;DHT22;29684;47.722;9.388;2023-04-23T02:35:04;11.10;99.90
8662;DHT22;29684;47.722;9.388;2023-04-23T02:37:50;11.10;99.90
8662;DHT22;29684;47.722;9.388;2023-04-23T02:40:34;11.10;99.90
8662;DHT22;29684;47.722;9.388;2023-04-23T02:43:19;11.10;99.90
8662;DHT22;29684;47.722;9.388;2023-04-23T02:46:03;11.10;99.90
8662;DHT22;29684;47.722;9.388;2023-04-23T02:48:51;11.00;99.90
8662;DHT22;29684;47.722;9.388;2023-04-23T02:51:35;10.90;99.90
8662;DHT22;29684;47.722;9.388;2023-04-23T02:54:19;10.90;99.90
8662;DHT22;29684;47.722;9.388;2023-04-23T02:57:04;10.90;99.90
8662;DHT22;29684;47.722;9.388;2023-04-23T02:59:49;10.90;99.90
8662;DHT22;29684;47.722;9.388;2023-04-23T03:02:34;10.90;99.90
8662;DHT22;29684;47.722;9.388;2023-04-23T03:05:18;10.90;99.90
8662;DHT22;29684;47.722;9.388;2023-04-23T03:08:02;10.80;99.90
8662;DHT22;29684;47.722;9.388;2023-04-23T03:10:46;10.90;99.90
8662;DHT22;29684;47.722;9.388;2023-04-23T03:13:31;10.90;99.90
8662;DHT22;29684;47.722;9.388;2023-04-23T03:16:15;10.90;99.90
8662;DHT22;29684;47.722;9.388;2023-04-23T03:19:00;10.80;99.90
8662;DHT22;29684;47.722;9.388;2023-04-23T03:21:44;10.80;99.90
8662;DHT22;29684;47.722;9.388;2023-04-23T03:24:28;10.80;99.90
8662;DHT22;29684;47.722;9.388;2023-04-23T03:27:14;10.70;99.90
8662;DHT22;29684;47.722;9.388;2023-04-23T03:29:58;10.60;99.90
8662;DHT22;29684;47.722;9.388;2023-04-23T03:32:42;10.80;99.90
8662;DHT22;29684;47.722;9.388;2023-04-23T03:35:27;10.70;99.90
8662;DHT22;29684;47.722;9.388;2023-04-23T03:38:11;10.60;99.90
8662;DHT22;29684;47.722;9.388;2023-04-23T03:40:55;10.60;99.90
8662;DHT22;29684;47.722;9.388;2023-04-23T03:43:39;10.60;99.90
8662;DHT22;29684;47.722;9.388;2023-04-23T03:46:23;10.70;99.90
8662;DHT22;29684;47.722;9.388;2023-04-23T03:49:07;10.70;99.90
8662;DHT22;29684;47.722;9.388;2023-04-23T03:51:52;10.70;99.90
8662;DHT22;29684;47.722;9.388;2023-04-23T03:54:36;10.70;99.90
8662;DHT22;29684;47.722;9.388;2023-04-23T03:57:20;10.60;99.90
8662;DHT22;29684;47.722;9.388;2023-04-23T04:00:05;10.60;99.90
8662;DHT22;29684;47.722;9.388;2023-04-23T04:02:55;10.50;99.90
8662;DHT22;29684;47.722;9.388;2023-04-23T04:05:40;10.60;99.90
8662;DHT22;29684;47.722;9.388;2023-04-23T04:08:24;10.50;99.90
8662;DHT22;29684;47.722;9.388;2023-04-23T04:11:10;10.60;99.90
8662;DHT22;29684;47.722;9.388;2023-04-23T04:13:54;10.60;99.90
8662;DHT22;29684;47.722;9.388;2023-04-23T04:16:38;10.60;99.90
8662;DHT22;29684;47.722;9.388;2023-04-23T04:19:23;10.60;99.90
8662;DHT22;29684;47.722;9.388;2023-04-23T04:22:07;10.50;99.90
8662;DHT22;29684;47.722;9.388;2023-04-23T04:24:52;10.60;99.90
8662;DHT22;29684;47.722;9.388;2023-04-23T04:27:37;10.50;99.90
8662;DHT22;29684;47.722;9.388;2023-04-23T04:30:23;10.50;99.90
8662;DHT22;29684;47.722;9.388;2023-04-23T04:33:07;10.50;99.90
8662;DHT22;29684;47.722;9.388;2023-04-23T04:35:52;10.50;99.90
8662;DHT22;29684;47.722;9.388;2023-04-23T04:38:37;10.40;99.90
8662;DHT22;29684;47.722;9.388;2023-04-23T04:41:22;10.40;99.90
8662;DHT22;29684;47.722;9.388;2023-04-23T04:44:08;10.50;99.90
8662;DHT22;29684;47.722;9.388;2023-04-23T04:46:52;10.50;99.90
8662;DHT22;29684;47.722;9.388;2023-04-23T04:49:36;10.50;99.90
8662;DHT22;29684;47.722;9.388;2023-04-23T04:52:21;10.40;99.90
8662;DHT22;29684;47.722;9.388;2023-04-23T04:55:06;10.40;99.90
8662;DHT22;29684;47.722;9.388;2023-04-23T04:57:50;10.40;99.90
8662;DHT22;29684;47.722;9.388;2023-04-23T05:00:34;10.50;99.90
8662;DHT22;29684;47.722;9.388;2023-04-23T05:03:19;10.50;99.90
8662;DHT22;29684;47.722;9.388;2023-04-23T05:06:04;10.50;99.90
8662;DHT22;29684;47.722;9.388;2023-04-23T05:08:48;10.60;99.90
8662;DHT22;29684;47.722;9.388;2023-04-23T05:11:33;10.50;99.90
8662;DHT22;29684;47.722;9.388;2023-04-23T05:14:18;10.60;99.90
8662;DHT22;29684;47.722;9.388;2023-04-23T05:17:02;10.60;99.90
8662;DHT22;29684;47.722;9.388;2023-04-23T05:19:46;10.60;99.90
8662;DHT22;29684;47.722;9.388;2023-04-23T05:22:31;10.60;99.90
8662;DHT22;29684;47.722;9.388;2023-04-23T05:25:15;10.60;99.90
8662;DHT22;29684;47.722;9.388;2023-04-23T05:27:59;10.60;99.90
8662;DHT22;29684;47.722;9.388;2023-04-23T05:30:44;10.70;99.90
8662;DHT22;29684;47.722;9.388;2023-04-23T05:33:28;11.40;99.90
8662;DHT22;29684;47.722;9.388;2023-04-23T05:36:12;10.50;99.90
8662;DHT22;29684;47.722;9.388;2023-04-23T05:38:56;10.60;99.90
8662;DHT22;29684;47.722;9.388;2023-04-23T05:41:40;10.60;99.90
8662;DHT22;29684;47.722;9.388;2023-04-23T05:44:24;10.70;99.90
8662;DHT22;29684;47.722;9.388;2023-04-23T05:47:10;10.60;99.90
8662;DHT22;29684;47.722;9.388;2023-04-23T05:49:54;10.50;99.90
8662;DHT22;29684;47.722;9.388;2023-04-23T05:52:40;10.70;99.90
8662;DHT22;29684;47.722;9.388;2023-04-23T05:55:24;10.90;99.90
8662;DHT22;29684;47.722;9.388;2023-04-23T05:58:09;11.00;99.90
8662;DHT22;29684;47.722;9.388;2023-04-23T06:00:53;11.00;99.90
8662;DHT22;29684;47.722;9.388;2023-04-23T06:03:38;11.10;99.90
8662;DHT22;29684;47.722;9.388;2023-04-23T06:06:25;11.20;99.90
8662;DHT22;29684;47.722;9.388;2023-04-23T06:09:10;11.30;99.90
8662;DHT22;29684;47.722;9.388;2023-04-23T06:11:55;11.40;99.90
8662;DHT22;29684;47.722;9.388;2023-04-23T06:14:39;11.40;99.90
8662;DHT22;29684;47.722;9.388;2023-04-23T06:17:23;11.50;99.90
8662;DHT22;29684;47.722;9.388;2023-04-23T06:20:07;11.60;99.90
8662;DHT22;29684;47.722;9.388;2023-04-23T06:22:53;11.60;99.90
8662;DHT22;29684;47.722;9.388;2023-04-23T06:25:38;11.70;99.90
8662;DHT22;29684;47.722;9.388;2023-04-23T06:28:22;11.60;99.90
8662;DHT22;29684;47.722;9.388;2023-04-23T06:31:07;11.40;99.90
8662;DHT22;29684;47.722;9.388;2023-04-23T06:33:51;11.40;99.90
8662;DHT22;29684;47.722;9.388;2023-04-23T06:36:35;11.50;99.90
8662;DHT22;29684;47.722;9.388;2023-04-23T06:39:20;11.40;99.90
8662;DHT22;29684;47.722;9.388;2023-04-23T06:42:04;11.50;99.90
8662;DHT22;29684;47.722;9.388;2023-04-23T06:44:48;11.60;99.90
8662;DHT22;29684;47.722;9.388;2023-04-23T06:47:32;11.60;99.90
8662;DHT22;29684;47.722;9.388;2023-04-23T06:50:16;11.60;99.90
8662;DHT22;29684;47.722;9.388;2023-04-23T06:53:00;9.60;99.90
8662;DHT22;29684;47.722;9.388;2023-04-23T06:55:45;11.60;99.90
8662;DHT22;29684;47.722;9.388;2023-04-23T06:58:29;11.70;99.90
8662;DHT22;29684;47.722;9.388;2023-04-23T07:01:16;12.00;99.90
8662;DHT22;29684;47.722;9.388;2023-04-23T07:04:01;12.10;99.90
8662;DHT22;29684;47.722;9.388;2023-04-23T07:06:45;12.20;99.90
8662;DHT22;29684;47.722;9.388;2023-04-23T07:09:29;12.40;99.90
8662;DHT22;29684;47.722;9.388;2023-04-23T07:12:13;12.50;99.90
8662;DHT22;29684;47.722;9.388;2023-04-23T07:14:57;12.60;99.90
8662;DHT22;29684;47.722;9.388;2023-04-23T07:17:41;12.60;99.90
8662;DHT22;29684;47.722;9.388;2023-04-23T07:20:26;12.50;99.90
8662;DHT22;29684;47.722;9.388;2023-04-23T07:23:10;12.60;99.90
8662;DHT22;29684;47.722;9.388;2023-04-23T07:25:54;12.80;99.90
8662;DHT22;29684;47.722;9.388;2023-04-23T07:28:38;12.80;99.90
8662;DHT22;29684;47.722;9.388;2023-04-23T07:31:23;12.90;99.90
8662;DHT22;29684;47.722;9.388;2023-04-23T07:34:07;12.80;99.90
8662;DHT22;29684;47.722;9.388;2023-04-23T07:36:52;12.90;99.90
8662;DHT22;29684;47.722;9.388;2023-04-23T07:39:36;12.80;99.90
8662;DHT22;29684;47.722;9.388;2023-04-23T07:42:20;12.80;99.90
8662;DHT22;29684;47.722;9.388;2023-04-23T07:45:05;13.00;99.90
8662;DHT22;29684;47.722;9.388;2023-04-23T07:47:49;13.10;99.90
8662;DHT22;29684;47.722;9.388;2023-04-23T07:50:34;13.10;99.90
8662;DHT22;29684;47.722;9.388;2023-04-23T07:53:18;13.20;99.90
8662;DHT22;29684;47.722;9.388;2023-04-23T07:56:02;13.40;99.90
8662;DHT22;29684;47.722;9.388;2023-04-23T07:58:46;13.60;99.90
8662;DHT22;29684;47.722;9.388;2023-04-23T08:01:31;13.50;99.90
8662;DHT22;29684;47.722;9.388;2023-04-23T08:04:15;13.80;99.90
8662;DHT22;29684;47.722;9.388;2023-04-23T08:06:59;13.80;99.90
8662;DHT22;29684;47.722;9.388;2023-04-23T08:09:44;13.70;99.90
8662;DHT22;29684;47.722;9.388;2023-04-23T08:12:28;13.90;99.90
8662;DHT22;29684;47.722;9.388;2023-04-23T08:15:13;14.00;99.90
8662;DHT22;29684;47.722;9.388;2023-04-23T08:17:57;14.20;99.90
8662;DHT22;29684;47.722;9.388;2023-04-23T08:20:42;14.20;99.90
8662;DHT22;29684;47.722;9.388;2023-04-23T08:23:27;14.30;99.90
8662;DHT22;29684;47.722;9.388;2023-04-23T08:26:11;14.20;99.90
8662;DHT22;29684;47.722;9.388;2023-04-23T08:28:55;14.40;99.90
8662;DHT22;29684;47.722;9.388;2023-04-23T08:31:40;14.60;99.90
8662;DHT22;29684;47.722;9.388;2023-04-23T08:34:24;14.60;99.90
8662;DHT22;29684;47.722;9.388;2023-04-23T08:37:08;14.70;99.90
8662;DHT22;29684;47.722;9.388;2023-04-23T08:39:53;14.90;99.90
8662;DHT22;29684;47.722;9.388;2023-04-23T08:45:25;15.10;99.90
8662;DHT22;29684;47.722;9.388;2023-04-23T08:48:10;15.50;99.90
8662;DHT22;29684;47.722;9.388;2023-04-23T08:50:56;15.50;99.90
8662;DHT22;29684;47.722;9.388;2023-04-23T08:53:43;15.50;99.90
8662;DHT22;29684;47.722;9.388;2023-04-23T08:56:27;15.50;99.90
8662;DHT22;29684;47.722;9.388;2023-04-23T08:59:12;15.60;99.90
8662;DHT22;29684;47.722;9.388;2023-04-23T09:01:56;16.00;99.90
8662;DHT22;29684;47.722;9.388;2023-04-23T09:04:44;16.30;99.90
8662;DHT22;29684;47.722;9.388;2023-04-23T09:07:29;16.50;99.90
8662;DHT22;29684;47.722;9.388;2023-04-23T09:10:14;15.80;99.90
8662;DHT22;29684;47.722;9.388;2023-04-23T09:12:58;16.00;99.90
8662;DHT22;29684;47.722;9.388;2023-04-23T09:15:42;15.90;99.90
8662;DHT22;29684;47.722;9.388;2023-04-23T09:18:26;15.70;99.90
8662;DHT22;29684;47.722;9.388;2023-04-23T09:21:11;16.10;99.90
8662;DHT22;29684;47.722;9.388;2023-04-23T09:23:57;16.40;99.90
8662;DHT22;29684;47.722;9.388;2023-04-23T09:26:46;16.50;99.90
8662;DHT22;29684;47.722;9.388;2023-04-23T09:29:31;16.50;99.90
8662;DHT22;29684;47.722;9.388;2023-04-23T09:32:15;16.80;99.90
8662;DHT22;29684;47.722;9.388;2023-04-23T09:35:04;16.90;99.90
8662;DHT22;29684;47.722;9.388;2023-04-23T09:37:50;16.80;99.90
8662;DHT22;29684;47.722;9.388;2023-04-23T09:40:36;16.50;99.90
8662;DHT22;29684;47.722;9.388;2023-04-23T09:43:22;16.80;99.90
8662;DHT22;29684;47.722;9.388;2023-04-23T09:46:06;16.90;99.90
8662;DHT22;29684;47.722;9.388;2023-04-23T09:48:50;16.60;99.90
8662;DHT22;29684;47.722;9.388;2023-04-23T09:51:39;16.30;99.90
8662;DHT22;29684;47.722;9.388;2023-04-23T09:54:24;16.30;99.90
8662;DHT22;29684;47.722;9.388;2023-04-23T09:57:10;16.60;99.90
8662;DHT22;29684;47.722;9.388;2023-04-23T09:59:58;17.30;99.90
8662;DHT22;29684;47.722;9.388;2023-04-23T10:02:49;17.40;99.90
8662;DHT22;29684;47.722;9.388;2023-04-23T10:05:38;17.20;99.90
8662;DHT22;29684;47.722;9.388;2023-04-23T10:08:27;16.60;99.90
8662;DHT22;29684;47.722;9.388;2023-04-23T10:11:11;16.20;99.90
8662;DHT22;29684;47.722;9.388;2023-04-23T10:13:55;16.30;99.90
8662;DHT22;29684;47.722;9.388;2023-04-23T10:16:41;16.60;99.90
8662;DHT22;29684;47.722;9.388;2023-04-23T10:19:27;16.80;99.90
8662;DHT22;29684;47.722;9.388;2023-04-23T10:22:12;16.80;99.90
8662;DHT22;29684;47.722;9.388;2023-04-23T10:25:00;16.70;99.90
8662;DHT22;29684;47.722;9.388;2023-04-23T10:27:48;16.70;99.90
8662;DHT22;29684;47.722;9.388;2023-04-23T10:30:32;17.00;99.90
8662;DHT22;29684;47.722;9.388;2023-04-23T10:33:17;17.70;99.90
8662;DHT22;29684;47.722;9.388;2023-04-23T10:36:02;18.30;99.90
8662;DHT22;29684;47.722;9.388;2023-04-23T10:38:46;18.30;99.90
8662;DHT22;29684;47.722;9.388;2023-04-23T10:41:38;18.10;99.90
8662;DHT22;29684;47.722;9.388;2023-04-23T10:44:35;17.60;99.90
8662;DHT22;29684;47.722;9.388;2023-04-23T10:47:19;18.10;99.90
8662;DHT22;29684;47.722;9.388;2023-04-23T10:53:17;19.00;99.90
8662;DHT22;29684;47.722;9.388;2023-04-23T10:56:06;18.30;99.90
8662;DHT22;29684;47.722;9.388;2023-04-23T10:58:52;18.00;99.90
8662;DHT22;29684;47.722;9.388;2023-04-23T11:01:38;18.40;99.90
8662;DHT22;29684;47.722;9.388;2023-04-23T11:04:24;18.40;99.90
8662;DHT22;29684;47.722;9.388;2023-04-23T11:07:11;18.60;99.90
8662;DHT22;29684;47.722;9.388;2023-04-23T11:09:58;18.30;99.90
8662;DHT22;29684;47.722;9.388;2023-04-23T11:12:43;18.50;99.90
8662;DHT22;29684;47.722;9.388;2023-04-23T11:15:29;18.50;99.90
8662;DHT22;29684;47.722;9.388;2023-04-23T11:18:14;18.90;99.90
8662;DHT22;29684;47.722;9.388;2023-04-23T11:20:58;19.20;99.90
8662;DHT22;29684;47.722;9.388;2023-04-23T11:23:45;19.00;99.90
8662;DHT22;29684;47.722;9.388;2023-04-23T11:26:30;19.10;99.90
8662;DHT22;29684;47.722;9.388;2023-04-23T11:29:14;19.20;99.90
8662;DHT22;29684;47.722;9.388;2023-04-23T11:31:59;18.80;99.90
8662;DHT22;29684;47.722;9.388;2023-04-23T11:34:45;19.00;99.90
8662;DHT22;29684;47.722;9.388;2023-04-23T11:37:30;18.80;99.90
8662;DHT22;29684;47.722;9.388;2023-04-23T11:40:16;18.20;99.90
8662;DHT22;29684;47.722;9.388;2023-04-23T11:43:03;18.60;99.90
8662;DHT22;29684;47.722;9.388;2023-04-23T11:45:48;18.80;99.90
8662;DHT22;29684;47.722;9.388;2023-04-23T11:48:34;18.70;99.90
8662;DHT22;29684;47.722;9.388;2023-04-23T11:51:24;19.00;99.90
8662;DHT22;29684;47.722;9.388;2023-04-23T11:54:09;18.90;99.90
8662;DHT22;29684;47.722;9.388;2023-04-23T11:56:54;18.60;99.90
8662;DHT22;29684;47.722;9.388;2023-04-23T11:59:39;18.80;99.90
8662;DHT22;29684;47.722;9.388;2023-04-23T12:02:23;19.00;99.90
8662;DHT22;29684;47.722;9.388;2023-04-23T12:05:08;19.10;99.90
8662;DHT22;29684;47.722;9.388;2023-04-23T12:07:53;18.80;99.90
8662;DHT22;29684;47.722;9.388;2023-04-23T12:10:52;19.20;99.90
8662;DHT22;29684;47.722;9.388;2023-04-23T12:13:39;19.50;99.90
8662;DHT22;29684;47.722;9.388;2023-04-23T12:16:37;20.10;99.90
8662;DHT22;29684;47.722;9.388;2023-04-23T12:19:27;20.60;99.90
8662;DHT22;29684;47.722;9.388;2023-04-23T12:22:12;21.10;99.90
8662;DHT22;29684;47.722;9.388;2023-04-23T12:24:56;20.50;99.90
8662;DHT22;29684;47.722;9.388;2023-04-23T12:27:43;19.80;99.90
8662;DHT22;29684;47.722;9.388;2023-04-23T12:30:31;19.10;99.90
8662;DHT22;29684;47.722;9.388;2023-04-23T12:33:16;19.10;99.90
8662;DHT22;29684;47.722;9.388;2023-04-23T12:36:00;19.50;99.90
8662;DHT22;29684;47.722;9.388;2023-04-23T12:38:44;19.90;99.90
8662;DHT22;29684;47.722;9.388;2023-04-23T12:41:29;20.40;99.90
8662;DHT22;29684;47.722;9.388;2023-04-23T12:44:14;20.80;99.90
8662;DHT22;29684;47.722;9.388;2023-04-23T12:47:00;21.60;99.90
8662;DHT22;29684;47.722;9.388;2023-04-23T12:49:47;21.10;99.90
8662;DHT22;29684;47.722;9.388;2023-04-23T12:52:35;21.10;99.90
8662;DHT22;29684;47.722;9.388;2023-04-23T12:55:21;21.40;99.90
8662;DHT22;29684;47.722;9.388;2023-04-23T12:58:06;21.90;99.90
8662;DHT22;29684;47.722;9.388;2023-04-23T13:00:50;22.00;99.90
8662;DHT22;29684;47.722;9.388;2023-04-23T13:03:34;22.00;99.90
8662;DHT22;29684;47.722;9.388;2023-04-23T13:06:18;22.00;99.90
8662;DHT22;29684;47.722;9.388;2023-04-23T13:09:03;22.60;99.90
8662;DHT22;29684;47.722;9.388;2023-04-23T13:11:48;22.60;99.90
8662;DHT22;29684;47.722;9.388;2023-04-23T13:14:32;22.30;99.90
8662;DHT22;29684;47.722;9.388;2023-04-23T13:17:17;22.60;99.90
8662;DHT22;29684;47.722;9.388;2023-04-23T13:20:01;22.70;99.90
8662;DHT22;29684;47.722;9.388;2023-04-23T13:22:46;23.10;99.90
8662;DHT22;29684;47.722;9.388;2023-04-23T13:25:30;23.60;99.90
8662;DHT22;29684;47.722;9.388;2023-04-23T13:28:14;24.20;99.90
8662;DHT22;29684;47.722;9.388;2023-04-23T13:30:59;23.40;99.90
8662;DHT22;29684;47.722;9.388;2023-04-23T13:33:44;24.40;99.90
8662;DHT22;29684;47.722;9.388;2023-04-23T13:36:28;23.90;99.90
8662;DHT22;29684;47.722;9.388;2023-04-23T13:39:13;22.90;99.90
8662;DHT22;29684;47.722;9.388;2023-04-23T13:41:57;23.90;99.90
8662;DHT22;29684;47.722;9.388;2023-04-23T13:44:41;25.20;99.90
8662;DHT22;29684;47.722;9.388;2023-04-23T13:47:26;23.60;99.90
8662;DHT22;29684;47.722;9.388;2023-04-23T13:50:14;23.00;99.90
8662;DHT22;29684;47.722;9.388;2023-04-23T13:52:58;23.50;99.90
8662;DHT22;29684;47.722;9.388;2023-04-23T13:55:42;23.00;99.90
8662;DHT22;29684;47.722;9.388;2023-04-23T13:58:26;22.60;99.90
8662;DHT22;29684;47.722;9.388;2023-04-23T14:01:10;22.20;99.90
8662;DHT22;29684;47.722;9.388;2023-04-23T14:03:57;21.90;99.90
8662;DHT22;29684;47.722;9.388;2023-04-23T14:06:41;22.20;99.90
8662;DHT22;29684;47.722;9.388;2023-04-23T14:09:26;21.80;99.90
8662;DHT22;29684;47.722;9.388;2023-04-23T14:12:11;21.40;99.90
8662;DHT22;29684;47.722;9.388;2023-04-23T14:14:55;21.10;99.90
8662;DHT22;29684;47.722;9.388;2023-04-23T14:17:40;21.10;99.90
8662;DHT22;29684;47.722;9.388;2023-04-23T14:20:26;21.10;99.90
8662;DHT22;29684;47.722;9.388;2023-04-23T14:26:08;20.90;99.90
8662;DHT22;29684;47.722;9.388;2023-04-23T14:28:56;21.20;99.90
8662;DHT22;29684;47.722;9.388;2023-04-23T14:31:45;21.70;99.90
8662;DHT22;29684;47.722;9.388;2023-04-23T14:34:29;21.10;99.90
8662;DHT22;29684;47.722;9.388;2023-04-23T14:37:13;20.10;99.90
8662;DHT22;29684;47.722;9.388;2023-04-23T14:39:57;19.90;99.90
8662;DHT22;29684;47.722;9.388;2023-04-23T14:42:41;19.50;99.90
8662;DHT22;29684;47.722;9.388;2023-04-23T14:45:26;19.20;99.90
8662;DHT22;29684;47.722;9.388;2023-04-23T14:48:14;19.10;99.90
8662;DHT22;29684;47.722;9.388;2023-04-23T14:50:58;19.00;99.90
8662;DHT22;29684;47.722;9.388;2023-04-23T14:53:43;18.80;99.90
8662;DHT22;29684;47.722;9.388;2023-04-23T14:56:27;18.50;99.90
8662;DHT22;29684;47.722;9.388;2023-04-23T14:59:11;18.40;99.90
8662;DHT22;29684;47.722;9.388;2023-04-23T15:01:56;18.20;99.90
8662;DHT22;29684;47.722;9.388;2023-04-23T15:04:40;17.80;99.90
8662;DHT22;29684;47.722;9.388;2023-04-23T15:07:24;17.50;99.90
8662;DHT22;29684;47.722;9.388;2023-04-23T15:10:09;17.30;99.90
8662;DHT22;29684;47.722;9.388;2023-04-23T15:13:01;17.10;99.90
8662;DHT22;29684;47.722;9.388;2023-04-23T15:15:53;17.10;99.90
8662;DHT22;29684;47.722;9.388;2023-04-23T15:18:38;19.20;99.90
8662;DHT22;29684;47.722;9.388;2023-04-23T15:21:22;17.50;99.90
8662;DHT22;29684;47.722;9.388;2023-04-23T15:24:06;17.50;99.90
8662;DHT22;29684;47.722;9.388;2023-04-23T15:26:51;17.50;99.90
8662;DHT22;29684;47.722;9.388;2023-04-23T15:29:37;17.50;99.90
8662;DHT22;29684;47.722;9.388;2023-04-23T15:32:21;17.50;99.90
8662;DHT22;29684;47.722;9.388;2023-04-23T15:35:07;17.40;99.90
8662;DHT22;29684;47.722;9.388;2023-04-23T15:37:52;17.30;99.90
8662;DHT22;29684;47.722;9.388;2023-04-23T15:40:37;17.20;99.90
8662;DHT22;29684;47.722;9.388;2023-04-23T15:43:25;17.10;99.90
8662;DHT22;29684;47.722;9.388;2023-04-23T15:46:09;16.90;99.90
8662;DHT22;29684;47.722;9.388;2023-04-23T15:48:54;16.60;99.90
8662;DHT22;29684;47.722;9.388;2023-04-23T15:51:38;16.30;99.90
8662;DHT22;29684;47.722;9.388;2023-04-23T15:54:22;16.00;99.90
8662;DHT22;29684;47.722;9.388;2023-04-23T15:57:07;15.60;99.90
8662;DHT22;29684;47.722;9.388;2023-04-23T15:59:51;15.40;99.90
8662;DHT22;29684;47.722;9.388;2023-04-23T16:02:35;15.20;99.90
8662;DHT22;29684;47.722;9.388;2023-04-23T16:05:21;15.10;99.90
8662;DHT22;29684;47.722;9.388;2023-04-23T16:08:06;15.00;99.90
8662;DHT22;29684;47.722;9.388;2023-04-23T16:10:50;14.90;99.90
8662;DHT22;29684;47.722;9.388;2023-04-23T16:13:34;14.70;99.90
8662;DHT22;29684;47.722;9.388;2023-04-23T16:16:18;14.60;99.90
8662;DHT22;29684;47.722;9.388;2023-04-23T16:19:04;14.50;99.90
8662;DHT22;29684;47.722;9.388;2023-04-23T16:21:48;14.50;99.90
8662;DHT22;29684;47.722;9.388;2023-04-23T16:24:32;14.30;99.90
8662;DHT22;29684;47.722;9.388;2023-04-23T16:27:16;14.10;99.90
8662;DHT22;29684;47.722;9.388;2023-04-23T16:30:00;13.90;99.90
8662;DHT22;29684;47.722;9.388;2023-04-23T16:32:45;13.60;99.90
8662;DHT22;29684;47.722;9.388;2023-04-23T16:35:29;13.50;99.90
8662;DHT22;29684;47.722;9.388;2023-04-23T16:38:13;13.40;99.90
8662;DHT22;29684;47.722;9.388;2023-04-23T16:40:57;13.20;99.90
8662;DHT22;29684;47.722;9.388;2023-04-23T16:43:41;13.10;99.90
8662;DHT22;29684;47.722;9.388;2023-04-23T16:46:26;13.00;99.90
8662;DHT22;29684;47.722;9.388;2023-04-23T16:49:13;13.00;99.90
8662;DHT22;29684;47.722;9.388;2023-04-23T16:51:57;12.90;99.90
8662;DHT22;29684;47.722;9.388;2023-04-23T16:54:41;12.80;99.90
8662;DHT22;29684;47.722;9.388;2023-04-23T16:57:29;12.90;99.90
8662;DHT22;29684;47.722;9.388;2023-04-23T17:00:13;13.00;99.90
8662;DHT22;29684;47.722;9.388;2023-04-23T17:02:58;13.00;99.90
8662;DHT22;29684;47.722;9.388;2023-04-23T17:05:42;13.00;99.90
8662;DHT22;29684;47.722;9.388;2023-04-23T17:08:27;12.90;99.90
8662;DHT22;29684;47.722;9.388;2023-04-23T17:11:11;12.90;99.90
8662;DHT22;29684;47.722;9.388;2023-04-23T17:13:57;13.00;99.90
8662;DHT22;29684;47.722;9.388;2023-04-23T17:16:41;13.00;99.90
8662;DHT22;29684;47.722;9.388;2023-04-23T17:19:25;12.90;99.90
8662;DHT22;29684;47.722;9.388;2023-04-23T17:22:10;12.90;99.90
8662;DHT22;29684;47.722;9.388;2023-04-23T17:24:54;12.90;99.90
8662;DHT22;29684;47.722;9.388;2023-04-23T17:27:38;13.00;99.90
8662;DHT22;29684;47.722;9.388;2023-04-23T17:30:23;12.90;99.90
8662;DHT22;29684;47.722;9.388;2023-04-23T17:33:07;13.00;99.90
8662;DHT22;29684;47.722;9.388;2023-04-23T17:35:52;13.30;99.90
8662;DHT22;29684;47.722;9.388;2023-04-23T17:38:36;14.00;99.90
8662;DHT22;29684;47.722;9.388;2023-04-23T17:41:20;14.50;99.90
8662;DHT22;29684;47.722;9.388;2023-04-23T17:44:05;14.30;99.90
8662;DHT22;29684;47.722;9.388;2023-04-23T17:46:50;14.10;99.90